createdAt,value
2023-07-01T00:00:32.963Z,92.33
2023-07-01T00:03:08.952Z,92.86
2023-07-01T00:05:37.233Z,92.83
2023-07-01T00:08:06.153Z,93.55
2023-07-01T00:10:34.620Z,93.28
2023-07-01T00:13:05.256Z,93.28
2023-07-01T00:15:36.862Z,94.03
2023-07-01T00:18:08.980Z,94.77
2023-07-01T00:20:37.409Z,95.30
2023-07-01T00:23:06.099Z,95.85
2023-07-01T00:25:34.316Z,96.75
2023-07-01T00:28:05.313Z,97.56
2023-07-01T00:30:33.829Z,98.45
2023-07-01T00:33:02.500Z,98.82
2023-07-01T00:35:32.433Z,99.90
2023-07-01T00:38:01.352Z,99.86
2023-07-01T00:40:29.503Z,100.00
2023-07-01T00:42:58.179Z,100.00
2023-07-01T00:45:26.725Z,100.00
2023-07-01T00:47:55.210Z,100.00
2023-07-01T00:50:23.649Z,100.00
2023-07-01T00:52:53.448Z,100.00
2023-07-01T00:55:21.835Z,100.00
2023-07-01T00:57:55.441Z,100.00
2023-07-01T01:00:23.947Z,100.00
2023-07-01T01:02:56.675Z,100.00
2023-07-01T01:05:33.721Z,100.00
2023-07-01T01:10:05.288Z,100.00
2023-07-01T01:12:35.935Z,100.00
2023-07-01T01:15:06.025Z,100.00
2023-07-01T01:17:41.149Z,100.00
2023-07-01T01:20:17.719Z,100.00
2023-07-01T01:22:55.262Z,100.00
2023-07-01T01:25:31.068Z,100.00
2023-07-01T01:28:01.776Z,100.00
2023-07-01T01:30:33.700Z,100.00
2023-07-01T01:33:03.282Z,100.00
2023-07-01T01:35:31.677Z,100.00
2023-07-01T01:38:06.858Z,100.00
2023-07-01T01:40:41.367Z,100.00
2023-07-01T01:43:17.806Z,100.00
2023-07-01T01:45:46.818Z,100.00
2023-07-01T01:48:15.556Z,100.00
2023-07-01T01:50:50.002Z,100.00
2023-07-01T01:53:19.609Z,100.00
2023-07-01T01:55:51.596Z,100.00
2023-07-01T01:58:21.789Z,100.00
2023-07-01T02:00:50.477Z,100.00
2023-07-01T02:03:18.977Z,100.00
2023-07-01T02:05:47.719Z,100.00
2023-07-01T02:08:16.035Z,100.00
2023-07-01T02:10:46.972Z,100.00
2023-07-01T02:13:15.548Z,100.00
2023-07-01T02:15:45.268Z,100.00
2023-07-01T02:18:13.496Z,100.00
2023-07-01T02:20:45.500Z,100.00
2023-07-01T02:23:13.886Z,100.00
2023-07-01T02:25:42.158Z,100.00
2023-07-01T02:28:11.031Z,100.00
2023-07-01T02:30:42.209Z,100.00
2023-07-01T02:33:15.883Z,100.00
2023-07-01T02:35:44.074Z,100.00
2023-07-01T02:38:16.199Z,100.00
2023-07-01T02:40:46.664Z,100.00
2023-07-01T02:43:15.104Z,100.00
2023-07-01T02:45:45.888Z,100.00
2023-07-01T02:48:18.603Z,100.00
2023-07-01T02:50:49.748Z,100.00
2023-07-01T02:53:19.103Z,100.00
2023-07-01T02:55:49.916Z,100.00
2023-07-01T02:58:20.938Z,100.00
2023-07-01T03:00:51.427Z,100.00
2023-07-01T03:03:21.032Z,100.00
2023-07-01T03:05:49.534Z,100.00
2023-07-01T03:08:20.026Z,100.00
2023-07-01T03:10:48.493Z,100.00
2023-07-01T03:13:17.642Z,100.00
2023-07-01T03:15:46.380Z,100.00
2023-07-01T03:18:14.556Z,100.00
2023-07-01T03:20:44.083Z,100.00
2023-07-01T03:23:12.377Z,100.00
2023-07-01T03:25:40.615Z,100.00
2023-07-01T03:28:10.186Z,100.00
2023-07-01T03:30:38.292Z,100.00
2023-07-01T03:33:07.621Z,100.00
2023-07-01T03:35:36.113Z,100.00
2023-07-01T03:38:06.118Z,100.00
2023-07-01T03:40:36.542Z,100.00
2023-07-01T03:43:06.861Z,100.00
2023-07-01T03:45:34.999Z,100.00
2023-07-01T03:48:03.275Z,100.00
2023-07-01T03:50:31.482Z,100.00
2023-07-01T03:52:59.624Z,100.00
2023-07-01T03:55:29.285Z,100.00
2023-07-01T03:57:57.382Z,100.00
2023-07-01T04:00:25.417Z,100.00
2023-07-01T04:02:56.380Z,100.00
2023-07-01T04:05:24.566Z,100.00
2023-07-01T04:07:52.747Z,100.00
2023-07-01T04:10:20.973Z,100.00
2023-07-01T04:12:50.498Z,100.00
2023-07-01T04:15:18.917Z,100.00
2023-07-01T04:17:50.144Z,100.00
2023-07-01T04:20:20.980Z,100.00
2023-07-01T04:22:50.043Z,100.00
2023-07-01T04:25:20.316Z,100.00
2023-07-01T04:27:52.227Z,100.00
2023-07-01T04:30:20.403Z,100.00
2023-07-01T04:32:48.642Z,100.00
2023-07-01T04:35:19.394Z,100.00
2023-07-01T04:37:47.940Z,100.00
2023-07-01T04:40:16.671Z,100.00
2023-07-01T04:42:50.209Z,100.00
2023-07-01T04:45:22.457Z,100.00
2023-07-01T04:47:50.801Z,100.00
2023-07-01T04:50:19.296Z,100.00
2023-07-01T04:52:47.413Z,100.00
2023-07-01T04:55:16.421Z,100.00
2023-07-01T05:00:32.076Z,100.00
2023-07-01T05:03:00.846Z,100.00
2023-07-01T05:05:29.195Z,100.00
2023-07-01T05:07:57.487Z,100.00
2023-07-01T05:10:25.926Z,100.00
2023-07-01T05:12:56.128Z,100.00
2023-07-01T05:15:24.451Z,98.47
2023-07-01T05:17:56.536Z,96.10
2023-07-01T05:20:24.832Z,92.80
2023-07-01T05:22:53.043Z,92.39
2023-07-01T05:25:23.514Z,91.82
2023-07-01T05:27:51.873Z,92.50
2023-07-01T05:30:22.551Z,90.37
2023-07-01T05:32:50.867Z,87.84
2023-07-01T05:35:20.484Z,83.88
2023-07-01T05:37:49.037Z,82.81
2023-07-01T05:40:17.452Z,81.25
2023-07-01T05:42:48.180Z,79.76
2023-07-01T05:45:16.369Z,77.41
2023-07-01T05:47:44.604Z,71.90
2023-07-01T05:50:12.827Z,70.09
2023-07-01T05:52:44.598Z,68.10
2023-07-01T05:55:12.894Z,66.69
2023-07-01T05:57:43.721Z,66.86
2023-07-01T06:00:17.250Z,65.13
2023-07-01T06:02:45.436Z,63.60
2023-07-01T06:05:13.703Z,62.52
2023-07-01T06:11:03.079Z,56.62
2023-07-01T06:13:31.293Z,53.12
2023-07-01T06:15:59.484Z,51.44
2023-07-01T06:18:27.761Z,51.45
2023-07-01T06:20:55.930Z,50.81
2023-07-01T06:23:24.212Z,49.96
2023-07-01T06:25:52.586Z,51.37
2023-07-01T06:28:22.213Z,51.09
2023-07-01T06:30:50.625Z,51.14
2023-07-01T06:33:19.013Z,52.10
2023-07-01T06:35:47.516Z,51.44
2023-07-01T06:38:16.001Z,53.29
2023-07-01T06:40:44.944Z,52.00
2023-07-01T06:43:13.392Z,50.28
2023-07-01T06:45:45.533Z,50.28
2023-07-01T06:48:13.921Z,50.88
2023-07-01T06:50:42.059Z,51.42
2023-07-01T06:53:10.343Z,51.50
2023-07-01T06:55:38.501Z,50.33
2023-07-01T06:58:06.791Z,49.42
2023-07-01T07:00:35.079Z,48.45
2023-07-01T07:03:05.088Z,46.72
2023-07-01T07:05:34.387Z,45.17
2023-07-01T07:08:02.990Z,44.28
2023-07-01T07:10:31.376Z,43.20
2023-07-01T07:12:59.641Z,41.37
2023-07-01T07:15:27.804Z,39.72
2023-07-01T07:17:56.358Z,40.69
2023-07-01T07:20:28.391Z,39.64
2023-07-01T07:22:56.856Z,37.62
2023-07-01T07:25:25.235Z,37.30
2023-07-01T07:27:55.654Z,37.02
2023-07-01T07:30:25.115Z,35.56
2023-07-01T07:32:53.269Z,35.04
2023-07-01T07:35:23.961Z,37.04
2023-07-01T07:37:53.833Z,37.86
2023-07-01T07:40:25.043Z,39.18
2023-07-01T07:42:56.027Z,40.21
2023-07-01T07:45:24.845Z,41.56
2023-07-01T07:47:53.467Z,42.56
2023-07-01T07:50:23.436Z,42.56
2023-07-01T07:52:53.214Z,42.15
2023-07-01T07:55:21.625Z,41.62
2023-07-01T07:57:50.083Z,42.23
2023-07-01T08:00:18.851Z,43.56
2023-07-01T08:02:49.193Z,43.32
2023-07-01T08:05:18.401Z,43.56
2023-07-01T08:07:48.390Z,44.64
2023-07-01T08:10:19.043Z,46.63
2023-07-01T08:12:47.701Z,46.87
2023-07-01T08:15:15.936Z,47.15
2023-07-01T08:17:44.316Z,48.53
2023-07-01T08:20:14.030Z,48.40
2023-07-01T08:22:42.414Z,46.77
2023-07-01T08:25:11.139Z,47.21
2023-07-01T08:27:40.967Z,47.30
2023-07-01T08:30:12.948Z,49.48
2023-07-01T08:32:41.345Z,49.37
2023-07-01T08:35:10.255Z,50.19
2023-07-01T08:37:38.512Z,50.54
2023-07-01T08:40:08.255Z,51.57
2023-07-01T08:42:46.289Z,52.70
2023-07-01T08:45:14.912Z,54.01
2023-07-01T08:47:44.111Z,55.43
2023-07-01T08:50:21.134Z,55.38
2023-07-01T08:52:58.124Z,57.13
2023-07-01T08:55:27.075Z,57.47
2023-07-01T08:57:56.799Z,56.65
2023-07-01T09:00:25.389Z,56.62
2023-07-01T09:02:56.693Z,57.21
2023-07-01T09:05:27.568Z,56.45
2023-07-01T09:07:55.905Z,57.38
2023-07-01T09:10:24.035Z,58.28
2023-07-01T09:12:53.601Z,58.34
2023-07-01T09:15:26.507Z,58.21
2023-07-01T09:17:54.902Z,58.84
2023-07-01T09:20:35.350Z,58.28
2023-07-01T09:23:03.517Z,58.46
2023-07-01T09:25:31.982Z,57.43
2023-07-01T09:28:00.620Z,56.88
2023-07-01T09:30:33.891Z,57.05
2023-07-01T09:33:12.574Z,56.92
2023-07-01T09:35:45.411Z,57.17
2023-07-01T09:38:14.576Z,58.25
2023-07-01T09:40:42.847Z,58.98
2023-07-01T09:43:11.233Z,59.21
2023-07-01T09:45:54.140Z,58.87
2023-07-01T09:48:23.503Z,59.34
2023-07-01T09:50:54.045Z,59.86
2023-07-01T09:53:22.895Z,58.63
2023-07-01T09:55:51.567Z,57.88
2023-07-01T09:58:22.623Z,58.95
2023-07-01T10:00:52.515Z,59.09
2023-07-01T10:03:21.359Z,59.19
2023-07-01T10:05:52.483Z,60.01
2023-07-01T10:08:21.907Z,61.04
2023-07-01T10:11:05.162Z,64.63
2023-07-01T10:13:39.048Z,67.33
2023-07-01T10:16:10.117Z,67.44
2023-07-01T10:18:41.004Z,67.20
2023-07-01T10:21:30.307Z,67.71
2023-07-01T10:24:00.263Z,67.86
2023-07-01T10:26:41.129Z,67.79
2023-07-01T10:29:40.965Z,67.63
2023-07-01T10:32:33.564Z,66.11
2023-07-01T10:35:22.937Z,67.46
2023-07-01T10:38:21.900Z,68.61
2023-07-01T10:40:52.272Z,72.13
2023-07-01T10:43:26.818Z,77.99
2023-07-01T10:46:09.884Z,81.05
2023-07-01T10:48:40.883Z,83.98
2023-07-01T10:51:12.867Z,84.49
2023-07-01T10:54:01.456Z,87.54
2023-07-01T10:56:31.131Z,85.82
2023-07-01T10:59:22.798Z,85.52
2023-07-01T11:01:57.445Z,84.36
2023-07-01T11:05:06.647Z,87.73
2023-07-01T11:07:37.726Z,85.53
2023-07-01T11:12:10.444Z,87.11
2023-07-01T11:14:41.341Z,90.65
2023-07-01T11:17:11.871Z,91.57
2023-07-01T11:19:40.368Z,93.23
2023-07-01T11:22:12.666Z,95.14
2023-07-01T11:24:41.405Z,99.01
2023-07-01T11:27:12.516Z,100.00
2023-07-01T11:29:42.039Z,99.69
2023-07-01T11:32:14.258Z,99.06
2023-07-01T11:34:43.692Z,98.36
2023-07-01T11:37:27.410Z,98.13
2023-07-01T11:39:56.313Z,97.28
2023-07-01T11:42:28.564Z,97.29
2023-07-01T11:44:57.033Z,95.13
2023-07-01T11:47:25.408Z,92.45
2023-07-01T11:49:54.244Z,90.63
2023-07-01T11:52:26.897Z,87.05
2023-07-01T11:54:57.809Z,88.36
2023-07-01T11:57:33.324Z,87.87
2023-07-01T12:00:06.746Z,87.47
2023-07-01T12:02:37.669Z,86.32
2023-07-01T12:05:06.864Z,87.11
2023-07-01T12:07:35.145Z,85.15
2023-07-01T12:10:22.217Z,86.24
2023-07-01T12:12:51.984Z,83.73
2023-07-01T12:15:20.427Z,81.14
2023-07-01T12:17:48.884Z,80.18
2023-07-01T12:20:17.072Z,79.76
2023-07-01T12:22:45.182Z,76.71
2023-07-01T12:25:13.584Z,77.60
2023-07-01T12:27:42.021Z,75.88
2023-07-01T12:30:14.828Z,77.36
2023-07-01T12:32:43.142Z,76.97
2023-07-01T12:35:12.080Z,78.10
2023-07-01T12:37:42.059Z,80.07
2023-07-01T12:40:11.919Z,78.89
2023-07-01T12:42:40.124Z,77.78
2023-07-01T12:45:09.253Z,76.87
2023-07-01T12:47:41.397Z,78.00
2023-07-01T12:52:56.535Z,78.62
2023-07-01T12:55:24.756Z,78.32
2023-07-01T12:57:53.414Z,77.33
2023-07-01T13:00:22.490Z,78.02
2023-07-01T13:02:54.250Z,76.33
2023-07-01T13:05:26.514Z,77.89
2023-07-01T13:08:00.562Z,77.36
2023-07-01T13:10:29.030Z,77.16
2023-07-01T13:12:58.750Z,77.29
2023-07-01T13:15:31.974Z,77.46
2023-07-01T13:18:02.206Z,76.94
2023-07-01T13:20:30.373Z,76.15
2023-07-01T13:23:02.132Z,75.92
2023-07-01T13:25:33.217Z,75.89
2023-07-01T13:28:04.719Z,76.28
2023-07-01T13:30:41.676Z,75.02
2023-07-01T13:33:19.237Z,74.13
2023-07-01T13:35:49.903Z,74.11
2023-07-01T13:38:18.883Z,74.57
2023-07-01T13:40:51.245Z,74.28
2023-07-01T13:43:21.349Z,75.11
2023-07-01T13:45:49.860Z,74.98
2023-07-01T13:48:35.066Z,73.66
2023-07-01T13:51:03.891Z,72.86
2023-07-01T13:53:33.610Z,73.95
2023-07-01T13:56:03.634Z,73.64
2023-07-01T13:58:32.475Z,74.54
2023-07-01T14:01:01.284Z,74.12
2023-07-01T14:03:49.593Z,74.94
2023-07-01T14:06:19.093Z,73.68
2023-07-01T14:08:47.993Z,74.00
2023-07-01T14:11:22.072Z,74.49
2023-07-01T14:13:53.810Z,73.66
2023-07-01T14:16:25.334Z,74.64
2023-07-01T14:19:00.182Z,74.08
2023-07-01T14:21:31.506Z,74.17
2023-07-01T14:24:06.125Z,75.19
2023-07-01T14:26:42.643Z,75.54
2023-07-01T14:29:15.656Z,75.68
2023-07-01T14:31:46.902Z,75.43
2023-07-01T14:34:19.611Z,75.11
2023-07-01T14:36:54.116Z,75.48
2023-07-01T14:39:43.262Z,75.76
2023-07-01T14:42:11.927Z,75.84
2023-07-01T14:44:40.083Z,75.66
2023-07-01T14:47:08.962Z,75.56
2023-07-01T14:49:41.673Z,75.71
2023-07-01T14:52:10.622Z,77.47
2023-07-01T14:54:41.212Z,77.43
2023-07-01T14:57:09.420Z,77.90
2023-07-01T14:59:38.050Z,78.56
2023-07-01T15:02:06.393Z,78.21
2023-07-01T15:04:36.793Z,79.41
2023-07-01T15:07:06.689Z,84.17
2023-07-01T15:09:34.872Z,90.02
2023-07-01T15:12:03.118Z,88.01
2023-07-01T15:14:31.325Z,87.79
2023-07-01T15:16:59.554Z,87.36
2023-07-01T15:19:27.858Z,87.07
2023-07-01T15:21:58.462Z,86.74
2023-07-01T15:24:28.131Z,85.95
2023-07-01T15:26:59.475Z,86.17
2023-07-01T15:29:29.472Z,85.79
2023-07-01T15:31:57.649Z,85.73
2023-07-01T15:34:26.274Z,86.52
2023-07-01T15:36:56.536Z,86.35
2023-07-01T15:39:28.589Z,87.47
2023-07-01T15:41:57.025Z,87.64
2023-07-01T15:44:26.431Z,88.03
2023-07-01T15:46:59.493Z,88.49
2023-07-01T15:49:30.643Z,87.87
2023-07-01T15:51:59.107Z,88.16
2023-07-01T15:54:28.754Z,89.31
2023-07-01T15:56:56.927Z,88.83
2023-07-01T15:59:29.672Z,88.39
2023-07-01T16:01:59.343Z,87.95
2023-07-01T16:04:27.915Z,88.56
2023-07-01T16:06:56.356Z,87.64
2023-07-01T16:13:34.655Z,88.10
2023-07-01T16:16:08.557Z,88.24
2023-07-01T16:18:47.446Z,87.25
2023-07-01T16:21:17.108Z,87.29
2023-07-01T16:23:51.225Z,87.77
2023-07-01T16:26:30.787Z,87.47
2023-07-01T16:29:00.586Z,87.11
2023-07-01T16:31:40.291Z,88.09
2023-07-01T16:34:09.440Z,88.96
2023-07-01T16:36:38.259Z,89.70
2023-07-01T16:39:11.059Z,88.58
2023-07-01T16:41:40.404Z,88.16
2023-07-01T16:44:12.477Z,87.33
2023-07-01T16:46:42.092Z,86.67
2023-07-01T16:49:12.514Z,87.59
2023-07-01T16:51:44.028Z,87.24
2023-07-01T16:54:27.216Z,86.66
2023-07-01T16:56:57.035Z,87.15
2023-07-01T16:59:43.475Z,85.53
2023-07-01T17:03:05.419Z,86.04
2023-07-01T17:05:36.906Z,85.98
2023-07-01T17:08:07.878Z,86.18
2023-07-01T17:10:39.886Z,85.52
2023-07-01T17:13:20.628Z,85.31
2023-07-01T17:15:53.280Z,85.65
2023-07-01T17:18:25.148Z,85.64
2023-07-01T17:20:54.378Z,87.46
2023-07-01T17:23:23.258Z,88.21
2023-07-01T17:25:51.572Z,88.96
2023-07-01T17:28:19.781Z,89.04
2023-07-01T17:30:48.139Z,88.90
2023-07-01T17:33:17.749Z,89.66
2023-07-01T17:35:46.008Z,90.45
2023-07-01T17:38:16.697Z,90.00
2023-07-01T17:40:47.870Z,89.61
2023-07-01T17:43:16.353Z,90.42
2023-07-01T17:45:44.841Z,89.66
2023-07-01T17:48:13.014Z,90.21
2023-07-01T17:50:44.994Z,90.55
2023-07-01T17:53:15.634Z,91.55
2023-07-01T17:55:43.982Z,91.05
2023-07-01T17:58:12.167Z,90.95
2023-07-01T18:00:40.312Z,91.50
2023-07-01T18:03:08.718Z,92.83
2023-07-01T18:05:39.376Z,92.24
2023-07-01T18:08:10.306Z,92.25
2023-07-01T18:10:38.574Z,92.84
2023-07-01T18:13:06.840Z,93.85
2023-07-01T18:15:35.060Z,93.69
2023-07-01T18:18:03.455Z,94.30
2023-07-01T18:20:38.748Z,94.01
2023-07-01T18:23:19.250Z,94.37
2023-07-01T18:25:52.236Z,93.84
2023-07-01T18:28:20.384Z,93.20
2023-07-01T18:30:48.616Z,93.47
2023-07-01T18:33:19.396Z,93.65
2023-07-01T18:35:47.808Z,93.75
2023-07-01T18:38:16.171Z,94.62
2023-07-01T18:40:45.961Z,96.19
2023-07-01T18:43:14.255Z,96.27
2023-07-01T18:48:14.251Z,99.35
2023-07-01T18:50:43.108Z,98.86
2023-07-01T18:53:11.269Z,99.42
2023-07-01T18:55:41.902Z,99.84
2023-07-01T18:58:12.461Z,100.00
2023-07-01T19:00:44.959Z,100.00
2023-07-01T19:03:13.638Z,100.00
2023-07-01T19:05:42.552Z,100.00
2023-07-01T19:08:11.585Z,100.00
2023-07-01T19:10:40.802Z,100.00
2023-07-01T19:13:11.259Z,100.00
2023-07-01T19:15:39.657Z,100.00
2023-07-01T19:18:08.646Z,100.00
2023-07-01T19:20:42.042Z,100.00
2023-07-01T19:23:10.957Z,100.00
2023-07-01T19:25:40.758Z,100.00
2023-07-01T19:28:15.381Z,100.00
2023-07-01T19:30:46.032Z,100.00
2023-07-01T19:33:19.537Z,100.00
2023-07-01T19:35:50.249Z,100.00
2023-07-01T19:38:19.156Z,100.00
2023-07-01T19:40:50.243Z,100.00
2023-07-01T19:43:20.423Z,100.00
2023-07-01T19:45:50.072Z,100.00
2023-07-01T19:48:21.053Z,100.00
2023-07-01T19:50:49.405Z,100.00
2023-07-01T19:53:19.099Z,100.00
2023-07-01T19:55:50.187Z,100.00
2023-07-01T19:58:24.362Z,100.00
2023-07-01T20:00:53.346Z,100.00
2023-07-01T20:03:22.806Z,100.00
2023-07-01T20:05:53.245Z,100.00
2023-07-01T20:08:22.212Z,100.00
2023-07-01T20:10:50.786Z,100.00
2023-07-01T20:13:20.727Z,100.00
2023-07-01T20:15:51.759Z,100.00
2023-07-01T20:18:20.638Z,100.00
2023-07-01T20:20:49.026Z,100.00
2023-07-01T20:23:17.514Z,100.00
2023-07-01T20:25:48.368Z,100.00
2023-07-01T20:28:20.832Z,100.00
2023-07-01T20:30:49.538Z,100.00
2023-07-01T20:33:21.297Z,100.00
2023-07-01T20:35:49.943Z,100.00
2023-07-01T20:38:18.593Z,100.00
2023-07-01T20:40:47.041Z,100.00
2023-07-01T20:43:16.041Z,100.00
2023-07-01T20:45:45.966Z,100.00
2023-07-01T20:48:14.459Z,100.00
2023-07-01T20:50:45.684Z,100.00
2023-07-01T20:53:14.050Z,100.00
2023-07-01T20:55:52.198Z,100.00
2023-07-01T20:58:20.646Z,100.00
2023-07-01T21:00:50.594Z,100.00
2023-07-01T21:03:19.416Z,100.00
2023-07-01T21:05:48.066Z,100.00
2023-07-01T21:08:16.688Z,100.00
2023-07-01T21:14:19.354Z,100.00
2023-07-01T21:16:50.359Z,100.00
2023-07-01T21:19:19.564Z,100.00
2023-07-01T21:21:48.654Z,100.00
2023-07-01T21:24:20.290Z,100.00
2023-07-01T21:26:49.009Z,100.00
2023-07-01T21:29:19.735Z,100.00
2023-07-01T21:31:51.079Z,100.00
2023-07-01T21:34:20.926Z,100.00
2023-07-01T21:36:51.174Z,100.00
2023-07-01T21:39:25.879Z,100.00
2023-07-01T21:41:54.264Z,100.00
2023-07-01T21:44:24.665Z,100.00
2023-07-01T21:46:53.158Z,100.00
2023-07-01T21:59:08.154Z,100.00
2023-07-01T22:01:42.464Z,100.00
2023-07-01T22:04:15.443Z,100.00
2023-07-01T22:06:46.709Z,100.00
2023-07-01T22:09:16.558Z,100.00
2023-07-01T22:11:44.936Z,100.00
2023-07-01T22:14:14.218Z,100.00
2023-07-01T22:16:43.859Z,100.00
2023-07-01T22:19:12.366Z,100.00
2023-07-01T22:21:42.898Z,100.00
2023-07-01T22:24:13.437Z,100.00
2023-07-01T22:26:42.077Z,100.00
2023-07-01T22:29:10.627Z,100.00
2023-07-01T22:31:38.969Z,100.00
2023-07-01T22:34:08.939Z,100.00
2023-07-01T22:36:39.669Z,100.00
2023-07-01T22:39:12.779Z,100.00
2023-07-01T22:41:41.047Z,100.00
2023-07-01T22:44:11.935Z,100.00
2023-07-01T22:46:40.251Z,100.00
2023-07-01T22:49:09.991Z,100.00
2023-07-01T22:51:38.339Z,100.00
2023-07-01T22:54:06.703Z,100.00
2023-07-01T22:56:37.582Z,100.00
2023-07-01T22:59:09.164Z,100.00
2023-07-01T23:01:38.639Z,100.00
2023-07-01T23:04:07.055Z,100.00
2023-07-01T23:06:37.452Z,100.00
2023-07-01T23:09:08.578Z,100.00
2023-07-01T23:11:37.274Z,100.00
2023-07-01T23:14:05.601Z,100.00
2023-07-01T23:16:34.463Z,100.00
2023-07-01T23:19:03.025Z,100.00
2023-07-01T23:21:35.456Z,100.00
2023-07-01T23:24:05.676Z,100.00
2023-07-01T23:26:36.431Z,100.00
2023-07-01T23:29:05.477Z,100.00
2023-07-01T23:31:33.666Z,100.00
2023-07-01T23:34:01.873Z,100.00
2023-07-01T23:36:30.801Z,100.00
2023-07-01T23:38:59.604Z,100.00
2023-07-01T23:41:29.139Z,100.00
2023-07-01T23:43:57.684Z,100.00
2023-07-01T23:46:25.908Z,100.00
2023-07-01T23:49:19.977Z,100.00
2023-07-01T23:51:48.278Z,100.00
2023-07-01T23:54:16.936Z,100.00
2023-07-01T23:56:55.107Z,100.00
2023-07-01T23:59:46.496Z,100.00
